sensor_id;sensor_type;location;lat;lon;timestamp;pressure;altitude;pressure_sealevel;temperature;humidity
45078;BME280;60508;42.622;25.416;2023-02-12T00:00:39;97570.09;;;0.71;42.94
45078;BME280;60508;42.622;25.416;2023-02-12T00:03:06;97568.16;;;0.81;42.43
45078;BME280;60508;42.622;25.416;2023-02-12T00:05:31;97577.28;;;1.03;41.48
45078;BME280;60508;42.622;25.416;2023-02-12T00:07:58;97567.88;;;1.09;41.77
45078;BME280;60508;42.622;25.416;2023-02-12T00:10:24;97577.97;;;1.14;43.41
45078;BME280;60508;42.622;25.416;2023-02-12T00:12:52;97555.63;;;1.16;42.99
45078;BME280;60508;42.622;25.416;2023-02-12T00:15:19;97573.81;;;0.95;43.41
45078;BME280;60508;42.622;25.416;2023-02-12T00:17:45;97577.44;;;0.94;43.58
45078;BME280;60508;42.622;25.416;2023-02-12T00:20:11;97571.31;;;0.93;42.20
45078;BME280;60508;42.622;25.416;2023-02-12T00:22:37;97572.00;;;1.03;41.21
45078;BME280;60508;42.622;25.416;2023-02-12T00:25:03;97582.09;;;1.08;40.20
45078;BME280;60508;42.622;25.416;2023-02-12T00:27:34;97567.53;;;0.96;41.18
45078;BME280;60508;42.622;25.416;2023-02-12T00:30:01;97572.50;;;0.99;39.80
45078;BME280;60508;42.622;25.416;2023-02-12T00:32:27;97577.75;;;0.82;40.13
45078;BME280;60508;42.622;25.416;2023-02-12T00:34:53;97559.09;;;0.33;41.53
45078;BME280;60508;42.622;25.416;2023-02-12T00:37:20;97564.25;;;0.43;40.83
45078;BME280;60508;42.622;25.416;2023-02-12T00:39:46;97555.88;;;0.56;41.02
45078;BME280;60508;42.622;25.416;2023-02-12T00:42:13;97571.59;;;0.65;40.14
45078;BME280;60508;42.622;25.416;2023-02-12T00:44:39;97569.13;;;0.72;40.99
45078;BME280;60508;42.622;25.416;2023-02-12T00:47:05;97583.56;;;0.86;40.57
45078;BME280;60508;42.622;25.416;2023-02-12T00:49:31;97569.53;;;1.02;41.99
45078;BME280;60508;42.622;25.416;2023-02-12T00:52:03;97573.94;;;0.77;42.39
45078;BME280;60508;42.622;25.416;2023-02-12T00:54:30;97564.19;;;0.85;42.02
45078;BME280;60508;42.622;25.416;2023-02-12T00:56:57;97558.09;;;0.93;41.91
45078;BME280;60508;42.622;25.416;2023-02-12T00:59:28;97563.06;;;1.04;41.54
45078;BME280;60508;42.622;25.416;2023-02-12T01:01:56;97546.69;;;1.01;41.48
45078;BME280;60508;42.622;25.416;2023-02-12T01:04:23;97542.03;;;0.86;42.35
45078;BME280;60508;42.622;25.416;2023-02-12T01:06:49;97532.66;;;1.00;41.84
45078;BME280;60508;42.622;25.416;2023-02-12T01:09:14;97530.97;;;1.07;41.23
45078;BME280;60508;42.622;25.416;2023-02-12T01:11:40;97529.00;;;1.09;42.22
45078;BME280;60508;42.622;25.416;2023-02-12T01:14:07;97533.94;;;1.04;41.44
45078;BME280;60508;42.622;25.416;2023-02-12T01:16:34;97523.38;;;1.21;41.39
45078;BME280;60508;42.622;25.416;2023-02-12T01:19:02;97522.31;;;0.64;42.13
45078;BME280;60508;42.622;25.416;2023-02-12T01:21:31;97504.00;;;0.79;42.94
45078;BME280;60508;42.622;25.416;2023-02-12T01:23:58;97526.16;;;0.86;45.52
45078;BME280;60508;42.622;25.416;2023-02-12T01:26:26;97516.88;;;0.74;46.68
45078;BME280;60508;42.622;25.416;2023-02-12T01:28:55;97522.16;;;0.66;47.01
45078;BME280;60508;42.622;25.416;2023-02-12T01:31:25;97512.91;;;0.53;47.06
45078;BME280;60508;42.622;25.416;2023-02-12T01:33:54;97515.38;;;0.55;46.73
45078;BME280;60508;42.622;25.416;2023-02-12T01:36:21;97515.72;;;0.60;46.79
45078;BME280;60508;42.622;25.416;2023-02-12T01:38:48;97499.88;;;0.85;46.16
45078;BME280;60508;42.622;25.416;2023-02-12T01:41:18;97509.78;;;0.75;45.05
45078;BME280;60508;42.622;25.416;2023-02-12T01:43:44;97506.59;;;0.46;46.16
45078;BME280;60508;42.622;25.416;2023-02-12T01:46:14;97517.25;;;0.79;45.88
45078;BME280;60508;42.622;25.416;2023-02-12T01:48:44;97507.50;;;0.96;45.38
45078;BME280;60508;42.622;25.416;2023-02-12T01:51:16;97498.72;;;0.96;45.65
45078;BME280;60508;42.622;25.416;2023-02-12T01:53:49;97500.34;;;0.80;45.28
45078;BME280;60508;42.622;25.416;2023-02-12T01:56:16;97493.22;;;0.72;45.76
45078;BME280;60508;42.622;25.416;2023-02-12T01:58:45;97509.47;;;0.78;45.60
45078;BME280;60508;42.622;25.416;2023-02-12T02:01:15;97515.91;;;0.91;45.23
45078;BME280;60508;42.622;25.416;2023-02-12T02:03:44;97510.91;;;0.64;45.86
45078;BME280;60508;42.622;25.416;2023-02-12T02:06:16;97510.44;;;0.68;45.64
45078;BME280;60508;42.622;25.416;2023-02-12T02:08:47;97502.16;;;0.63;45.15
45078;BME280;60508;42.622;25.416;2023-02-12T02:11:13;97507.28;;;0.57;45.72
45078;BME280;60508;42.622;25.416;2023-02-12T02:14:00;97483.50;;;0.81;45.47
45078;BME280;60508;42.622;25.416;2023-02-12T02:27:56;97488.16;;;0.79;44.66
45078;BME280;60508;42.622;25.416;2023-02-12T02:35:34;97479.25;;;0.21;45.30
45078;BME280;60508;42.622;25.416;2023-02-12T02:38:09;97479.94;;;0.31;45.15
45078;BME280;60508;42.622;25.416;2023-02-12T02:41:02;97482.44;;;0.33;44.01
45078;BME280;60508;42.622;25.416;2023-02-12T02:43:43;97479.06;;;0.14;42.31
45078;BME280;60508;42.622;25.416;2023-02-12T02:46:31;97486.06;;;0.32;40.34
45078;BME280;60508;42.622;25.416;2023-02-12T02:49:03;97481.47;;;0.42;40.26
45078;BME280;60508;42.622;25.416;2023-02-12T02:51:32;97492.19;;;0.41;40.12
45078;BME280;60508;42.622;25.416;2023-02-12T02:54:22;97484.13;;;0.42;40.13
45078;BME280;60508;42.622;25.416;2023-02-12T02:56:52;97479.31;;;0.38;39.89
45078;BME280;60508;42.622;25.416;2023-02-12T02:59:24;97475.88;;;0.62;40.00
45078;BME280;60508;42.622;25.416;2023-02-12T03:01:56;97484.47;;;0.72;39.53
45078;BME280;60508;42.622;25.416;2023-02-12T03:04:28;97478.38;;;0.88;39.41
45078;BME280;60508;42.622;25.416;2023-02-12T03:09:37;97486.16;;;1.14;39.55
45078;BME280;60508;42.622;25.416;2023-02-12T03:12:11;97478.03;;;1.24;38.48
45078;BME280;60508;42.622;25.416;2023-02-12T03:14:43;97485.00;;;1.25;38.72
45078;BME280;60508;42.622;25.416;2023-02-12T03:17:19;97485.78;;;1.42;37.54
45078;BME280;60508;42.622;25.416;2023-02-12T03:19:59;97481.50;;;1.16;37.68
45078;BME280;60508;42.622;25.416;2023-02-12T03:22:33;97478.53;;;1.44;37.92
45078;BME280;60508;42.622;25.416;2023-02-12T03:26:06;97483.81;;;1.44;37.65
45078;BME280;60508;42.622;25.416;2023-02-12T03:28:24;97481.31;;;1.51;38.63
45078;BME280;60508;42.622;25.416;2023-02-12T03:33:59;97475.72;;;1.29;39.08
45078;BME280;60508;42.622;25.416;2023-02-12T03:39:16;97471.25;;;1.30;38.87
45078;BME280;60508;42.622;25.416;2023-02-12T03:41:54;97459.03;;;1.20;38.94
45078;BME280;60508;42.622;25.416;2023-02-12T03:47:04;97477.03;;;1.33;37.16
45078;BME280;60508;42.622;25.416;2023-02-12T03:50:18;97477.50;;;1.53;38.54
45078;BME280;60508;42.622;25.416;2023-02-12T03:52:25;97482.31;;;1.50;38.26
45078;BME280;60508;42.622;25.416;2023-02-12T03:54:52;97473.34;;;1.59;38.29
45078;BME280;60508;42.622;25.416;2023-02-12T03:57:21;97475.69;;;1.54;38.57
45078;BME280;60508;42.622;25.416;2023-02-12T03:59:48;97475.63;;;1.70;38.57
45078;BME280;60508;42.622;25.416;2023-02-12T04:02:17;97467.34;;;1.73;38.13
45078;BME280;60508;42.622;25.416;2023-02-12T04:04:45;97471.13;;;1.79;38.09
45078;BME280;60508;42.622;25.416;2023-02-12T04:07:12;97465.69;;;1.72;37.49
45078;BME280;60508;42.622;25.416;2023-02-12T04:09:39;97479.97;;;1.55;37.30
45078;BME280;60508;42.622;25.416;2023-02-12T04:15:22;97484.09;;;1.66;38.35
45078;BME280;60508;42.622;25.416;2023-02-12T04:20:26;97470.06;;;1.57;38.49
45078;BME280;60508;42.622;25.416;2023-02-12T04:29:21;97476.91;;;1.10;40.45
45078;BME280;60508;42.622;25.416;2023-02-12T04:32:10;97483.81;;;1.19;40.71
45078;BME280;60508;42.622;25.416;2023-02-12T04:34:50;97493.75;;;1.34;41.05
45078;BME280;60508;42.622;25.416;2023-02-12T04:37:20;97477.38;;;1.30;40.69
45078;BME280;60508;42.622;25.416;2023-02-12T04:39:48;97483.81;;;1.19;40.69
45078;BME280;60508;42.622;25.416;2023-02-12T04:42:15;97445.97;;;1.02;40.79
45078;BME280;60508;42.622;25.416;2023-02-12T04:44:42;97477.56;;;1.12;40.52
45078;BME280;60508;42.622;25.416;2023-02-12T04:47:13;97484.34;;;1.23;40.74
45078;BME280;60508;42.622;25.416;2023-02-12T04:49:39;97485.00;;;1.17;39.46
45078;BME280;60508;42.622;25.416;2023-02-12T04:52:06;97500.72;;;1.26;38.82
45078;BME280;60508;42.622;25.416;2023-02-12T04:54:33;97489.94;;;1.44;38.61
45078;BME280;60508;42.622;25.416;2023-02-12T04:56:59;97491.59;;;1.45;37.48
45078;BME280;60508;42.622;25.416;2023-02-12T04:59:25;97508.44;;;1.61;37.59
45078;BME280;60508;42.622;25.416;2023-02-12T05:01:52;97499.03;;;1.58;37.64
45078;BME280;60508;42.622;25.416;2023-02-12T05:04:18;97510.72;;;1.72;37.34
45078;BME280;60508;42.622;25.416;2023-02-12T05:06:44;97509.41;;;1.76;37.62
45078;BME280;60508;42.622;25.416;2023-02-12T05:09:17;97516.00;;;1.80;37.00
45078;BME280;60508;42.622;25.416;2023-02-12T05:11:44;97506.09;;;1.74;37.21
45078;BME280;60508;42.622;25.416;2023-02-12T05:14:10;97506.25;;;1.73;37.44
45078;BME280;60508;42.622;25.416;2023-02-12T05:16:36;97512.06;;;1.76;39.04
45078;BME280;60508;42.622;25.416;2023-02-12T05:19:02;97514.91;;;1.58;38.74
45078;BME280;60508;42.622;25.416;2023-02-12T05:21:29;97532.75;;;1.64;39.94
45078;BME280;60508;42.622;25.416;2023-02-12T05:23:55;97526.31;;;1.67;40.64
45078;BME280;60508;42.622;25.416;2023-02-12T05:26:21;97533.28;;;1.68;40.64
45078;BME280;60508;42.622;25.416;2023-02-12T05:28:47;97532.78;;;1.56;40.73
45078;BME280;60508;42.622;25.416;2023-02-12T05:31:16;97540.88;;;1.63;40.46
45078;BME280;60508;42.622;25.416;2023-02-12T05:33:43;97535.56;;;1.63;41.22
45078;BME280;60508;42.622;25.416;2023-02-12T05:36:12;97524.84;;;1.40;41.10
45078;BME280;60508;42.622;25.416;2023-02-12T05:38:38;97549.34;;;1.67;41.49
45078;BME280;60508;42.622;25.416;2023-02-12T05:41:13;97546.19;;;1.55;41.30
45078;BME280;60508;42.622;25.416;2023-02-12T05:43:41;97556.31;;;1.43;41.58
45078;BME280;60508;42.622;25.416;2023-02-12T05:46:08;97563.25;;;1.52;41.51
45078;BME280;60508;42.622;25.416;2023-02-12T05:48:35;97574.34;;;1.39;42.87
45078;BME280;60508;42.622;25.416;2023-02-12T05:53:32;97581.94;;;1.26;45.94
45078;BME280;60508;42.622;25.416;2023-02-12T05:56:12;97590.72;;;1.51;45.71
45078;BME280;60508;42.622;25.416;2023-02-12T05:58:40;97588.72;;;1.53;45.07
45078;BME280;60508;42.622;25.416;2023-02-12T06:01:18;97586.25;;;1.52;43.27
45078;BME280;60508;42.622;25.416;2023-02-12T06:03:44;97584.13;;;1.47;44.10
45078;BME280;60508;42.622;25.416;2023-02-12T06:06:10;97580.13;;;1.35;42.22
45078;BME280;60508;42.622;25.416;2023-02-12T06:08:37;97584.28;;;1.54;40.61
45078;BME280;60508;42.622;25.416;2023-02-12T06:11:05;97587.06;;;1.77;39.19
45078;BME280;60508;42.622;25.416;2023-02-12T06:13:34;97589.56;;;1.78;38.78
45078;BME280;60508;42.622;25.416;2023-02-12T06:16:01;97586.38;;;1.99;37.12
45078;BME280;60508;42.622;25.416;2023-02-12T06:18:27;97583.28;;;1.79;40.40
45078;BME280;60508;42.622;25.416;2023-02-12T06:20:53;97589.72;;;1.77;41.01
45078;BME280;60508;42.622;25.416;2023-02-12T06:23:21;97595.84;;;1.94;41.24
45078;BME280;60508;42.622;25.416;2023-02-12T06:25:48;97592.31;;;2.10;42.89
45078;BME280;60508;42.622;25.416;2023-02-12T06:28:14;97588.06;;;1.76;45.46
45078;BME280;60508;42.622;25.416;2023-02-12T06:30:41;97594.84;;;1.78;45.75
45078;BME280;60508;42.622;25.416;2023-02-12T06:33:07;97591.53;;;1.85;46.58
45078;BME280;60508;42.622;25.416;2023-02-12T06:35:36;97602.78;;;1.87;46.82
45078;BME280;60508;42.622;25.416;2023-02-12T06:38:03;97610.22;;;1.99;46.11
45078;BME280;60508;42.622;25.416;2023-02-12T06:40:31;97597.44;;;2.11;45.73
45078;BME280;60508;42.622;25.416;2023-02-12T06:42:57;97614.13;;;2.28;44.50
45078;BME280;60508;42.622;25.416;2023-02-12T06:45:23;97605.00;;;2.31;45.56
45078;BME280;60508;42.622;25.416;2023-02-12T06:47:49;97612.97;;;2.23;46.29
45078;BME280;60508;42.622;25.416;2023-02-12T06:50:15;97606.34;;;2.27;46.10
45078;BME280;60508;42.622;25.416;2023-02-12T06:52:41;97620.38;;;2.44;45.60
45078;BME280;60508;42.622;25.416;2023-02-12T06:55:07;97614.09;;;2.45;44.96
45078;BME280;60508;42.622;25.416;2023-02-12T06:57:33;97618.78;;;2.34;44.96
45078;BME280;60508;42.622;25.416;2023-02-12T06:59:59;97618.50;;;2.61;44.72
45078;BME280;60508;42.622;25.416;2023-02-12T07:02:25;97621.38;;;2.51;45.22
45078;BME280;60508;42.622;25.416;2023-02-12T07:04:51;97623.59;;;2.70;45.41
45078;BME280;60508;42.622;25.416;2023-02-12T07:07:17;97621.16;;;2.61;46.52
45078;BME280;60508;42.622;25.416;2023-02-12T07:09:43;97616.75;;;2.76;47.36
45078;BME280;60508;42.622;25.416;2023-02-12T07:12:09;97626.13;;;2.08;50.30
45078;BME280;60508;42.622;25.416;2023-02-12T07:14:36;97630.25;;;2.10;48.95
45078;BME280;60508;42.622;25.416;2023-02-12T07:17:02;97626.72;;;2.34;48.21
45078;BME280;60508;42.622;25.416;2023-02-12T07:19:29;97624.09;;;2.26;48.02
45078;BME280;60508;42.622;25.416;2023-02-12T07:21:56;97628.75;;;2.08;48.13
45078;BME280;60508;42.622;25.416;2023-02-12T07:24:22;97634.75;;;2.58;46.82
45078;BME280;60508;42.622;25.416;2023-02-12T07:26:47;97599.69;;;2.79;45.62
45078;BME280;60508;42.622;25.416;2023-02-12T07:29:14;97614.66;;;3.03;45.44
45078;BME280;60508;42.622;25.416;2023-02-12T07:31:40;97625.16;;;3.19;45.07
45078;BME280;60508;42.622;25.416;2023-02-12T07:34:06;97626.13;;;3.26;44.80
45078;BME280;60508;42.622;25.416;2023-02-12T07:36:32;97618.63;;;3.30;44.91
45078;BME280;60508;42.622;25.416;2023-02-12T07:38:59;97624.59;;;3.32;44.59
45078;BME280;60508;42.622;25.416;2023-02-12T07:41:34;97620.28;;;3.54;43.63
45078;BME280;60508;42.622;25.416;2023-02-12T07:44:06;97615.50;;;3.50;43.78
45078;BME280;60508;42.622;25.416;2023-02-12T07:46:34;97614.63;;;3.57;43.23
45078;BME280;60508;42.622;25.416;2023-02-12T07:49:02;97612.88;;;3.88;41.89
45078;BME280;60508;42.622;25.416;2023-02-12T07:51:31;97615.38;;;4.19;40.65
45078;BME280;60508;42.622;25.416;2023-02-12T07:54:01;97611.47;;;4.30;40.01
45078;BME280;60508;42.622;25.416;2023-02-12T07:56:29;97613.22;;;4.52;39.80
45078;BME280;60508;42.622;25.416;2023-02-12T07:59:03;97611.19;;;4.54;39.15
45078;BME280;60508;42.622;25.416;2023-02-12T08:01:34;97621.00;;;4.69;39.49
45078;BME280;60508;42.622;25.416;2023-02-12T08:04:03;97615.81;;;4.82;38.96
45078;BME280;60508;42.622;25.416;2023-02-12T08:06:32;97605.63;;;4.86;38.86
45078;BME280;60508;42.622;25.416;2023-02-12T08:09:00;97611.13;;;4.99;38.46
45078;BME280;60508;42.622;25.416;2023-02-12T08:11:27;97616.16;;;5.09;38.58
45078;BME280;60508;42.622;25.416;2023-02-12T08:13:55;97610.91;;;5.16;37.99
45078;BME280;60508;42.622;25.416;2023-02-12T08:16:23;97614.00;;;5.19;38.30
45078;BME280;60508;42.622;25.416;2023-02-12T08:18:49;97625.94;;;5.23;37.71
45078;BME280;60508;42.622;25.416;2023-02-12T08:21:26;97624.72;;;5.26;37.83
45078;BME280;60508;42.622;25.416;2023-02-12T08:23:54;97622.91;;;5.26;38.05
45078;BME280;60508;42.622;25.416;2023-02-12T08:26:24;97629.31;;;5.32;38.32
45078;BME280;60508;42.622;25.416;2023-02-12T08:29:14;97627.75;;;5.38;37.82
45078;BME280;60508;42.622;25.416;2023-02-12T08:31:44;97631.66;;;5.42;37.98
45078;BME280;60508;42.622;25.416;2023-02-12T08:34:18;97633.44;;;5.35;38.08
45078;BME280;60508;42.622;25.416;2023-02-12T08:36:46;97645.94;;;5.34;38.33
45078;BME280;60508;42.622;25.416;2023-02-12T08:39:13;97641.06;;;5.38;38.07
45078;BME280;60508;42.622;25.416;2023-02-12T08:41:40;97648.03;;;5.39;37.62
45078;BME280;60508;42.622;25.416;2023-02-12T08:44:10;97655.13;;;5.32;37.99
45078;BME280;60508;42.622;25.416;2023-02-12T08:46:39;97653.22;;;5.47;37.43
45078;BME280;60508;42.622;25.416;2023-02-12T08:49:07;97662.38;;;5.38;37.68
45078;BME280;60508;42.622;25.416;2023-02-12T08:51:36;97675.97;;;5.64;37.71
45078;BME280;60508;42.622;25.416;2023-02-12T08:54:06;97658.22;;;5.72;37.90
45078;BME280;60508;42.622;25.416;2023-02-12T08:56:33;97674.59;;;6.12;36.98
45078;BME280;60508;42.622;25.416;2023-02-12T08:59:01;97673.34;;;6.36;36.23
45078;BME280;60508;42.622;25.416;2023-02-12T09:01:29;97681.22;;;6.79;35.20
45078;BME280;60508;42.622;25.416;2023-02-12T09:03:55;97677.00;;;7.53;34.77
45078;BME280;60508;42.622;25.416;2023-02-12T09:06:23;97675.03;;;8.69;32.76
45078;BME280;60508;42.622;25.416;2023-02-12T09:08:50;97681.81;;;8.38;33.04
45078;BME280;60508;42.622;25.416;2023-02-12T09:11:23;97689.41;;;7.81;33.78
45078;BME280;60508;42.622;25.416;2023-02-12T09:13:52;97697.63;;;7.79;33.38
45078;BME280;60508;42.622;25.416;2023-02-12T09:16:18;97699.44;;;9.12;32.16
45078;BME280;60508;42.622;25.416;2023-02-12T09:18:44;97710.63;;;10.50;29.72
45078;BME280;60508;42.622;25.416;2023-02-12T09:21:12;97700.25;;;10.54;29.22
45078;BME280;60508;42.622;25.416;2023-02-12T09:23:39;97698.69;;;10.14;30.35
45078;BME280;60508;42.622;25.416;2023-02-12T09:26:07;97712.75;;;9.78;30.41
45078;BME280;60508;42.622;25.416;2023-02-12T09:28:34;97700.16;;;9.78;30.60
45078;BME280;60508;42.622;25.416;2023-02-12T09:31:11;97708.66;;;10.64;28.76
45078;BME280;60508;42.622;25.416;2023-02-12T09:33:39;97710.03;;;9.84;30.07
45078;BME280;60508;42.622;25.416;2023-02-12T09:36:10;97718.97;;;9.72;30.53
45078;BME280;60508;42.622;25.416;2023-02-12T09:38:36;97721.34;;;9.55;30.56
45078;BME280;60508;42.622;25.416;2023-02-12T09:46:31;97711.94;;;9.39;30.96
45078;BME280;60508;42.622;25.416;2023-02-12T09:49:08;97709.31;;;9.64;30.39
45078;BME280;60508;42.622;25.416;2023-02-12T09:51:37;97709.56;;;9.94;30.16
45078;BME280;60508;42.622;25.416;2023-02-12T09:54:04;97715.50;;;10.85;29.03
45078;BME280;60508;42.622;25.416;2023-02-12T09:56:33;97709.81;;;12.52;27.03
45078;BME280;60508;42.622;25.416;2023-02-12T09:59:04;97716.59;;;13.66;25.53
45078;BME280;60508;42.622;25.416;2023-02-12T10:01:31;97705.47;;;14.71;24.28
45078;BME280;60508;42.622;25.416;2023-02-12T10:03:58;97703.38;;;14.73;23.41
45078;BME280;60508;42.622;25.416;2023-02-12T10:09:08;97713.41;;;13.05;25.30
45078;BME280;60508;42.622;25.416;2023-02-12T10:12:06;97717.63;;;13.77;24.91
45078;BME280;60508;42.622;25.416;2023-02-12T10:14:56;97705.59;;;15.81;22.29
45078;BME280;60508;42.622;25.416;2023-02-12T10:17:39;97710.16;;;16.03;22.35
45078;BME280;60508;42.622;25.416;2023-02-12T10:28:16;97699.72;;;15.45;22.83
45078;BME280;60508;42.622;25.416;2023-02-12T10:30:55;97711.22;;;18.46;19.58
45078;BME280;60508;42.622;25.416;2023-02-12T10:33:32;97703.22;;;19.32;18.77
45078;BME280;60508;42.622;25.416;2023-02-12T10:36:05;97714.38;;;19.36;18.21
45078;BME280;60508;42.622;25.416;2023-02-12T10:38:39;97728.03;;;18.22;19.54
45078;BME280;60508;42.622;25.416;2023-02-12T10:41:09;97724.38;;;16.80;20.40
45078;BME280;60508;42.622;25.416;2023-02-12T10:43:38;97722.66;;;17.54;19.97
45078;BME280;60508;42.622;25.416;2023-02-12T10:46:15;97727.47;;;18.00;19.42
45078;BME280;60508;42.622;25.416;2023-02-12T10:48:45;97736.03;;;17.66;19.99
45078;BME280;60508;42.622;25.416;2023-02-12T10:51:26;97739.69;;;16.91;20.32
45078;BME280;60508;42.622;25.416;2023-02-12T10:53:54;97745.19;;;16.10;21.45
45078;BME280;60508;42.622;25.416;2023-02-12T10:56:21;97751.22;;;14.72;21.90
45078;BME280;60508;42.622;25.416;2023-02-12T10:58:57;97761.63;;;13.37;23.87
45078;BME280;60508;42.622;25.416;2023-02-12T11:01:30;97760.03;;;12.34;25.28
45078;BME280;60508;42.622;25.416;2023-02-12T11:03:59;97765.06;;;11.51;26.79
45078;BME280;60508;42.622;25.416;2023-02-12T11:06:27;97782.03;;;10.65;27.52
45078;BME280;60508;42.622;25.416;2023-02-12T11:08:54;97769.78;;;10.12;28.27
45078;BME280;60508;42.622;25.416;2023-02-12T11:11:25;97782.25;;;9.93;28.84
45078;BME280;60508;42.622;25.416;2023-02-12T11:16:29;97787.25;;;9.89;29.13
45078;BME280;60508;42.622;25.416;2023-02-12T11:19:04;97786.50;;;9.68;29.42
45078;BME280;60508;42.622;25.416;2023-02-12T11:21:31;97780.63;;;9.46;29.67
45078;BME280;60508;42.622;25.416;2023-02-12T11:24:34;97784.94;;;9.41;29.77
45078;BME280;60508;42.622;25.416;2023-02-12T11:27:30;97783.59;;;9.70;30.14
45078;BME280;60508;42.622;25.416;2023-02-12T11:30:18;97787.78;;;9.53;30.18
45078;BME280;60508;42.622;25.416;2023-02-12T11:32:46;97780.53;;;9.66;30.19
45078;BME280;60508;42.622;25.416;2023-02-12T11:35:21;97780.72;;;10.49;29.24
45078;BME280;60508;42.622;25.416;2023-02-12T11:37:55;97783.44;;;10.67;29.34
45078;BME280;60508;42.622;25.416;2023-02-12T11:40:31;97778.50;;;11.70;27.88
45078;BME280;60508;42.622;25.416;2023-02-12T11:43:01;97785.69;;;15.33;23.49
45078;BME280;60508;42.622;25.416;2023-02-12T11:45:40;97777.88;;;18.49;19.89
45078;BME280;60508;42.622;25.416;2023-02-12T11:48:22;97785.47;;;21.04;17.71
45078;BME280;60508;42.622;25.416;2023-02-12T11:50:53;97784.63;;;21.33;17.18
45078;BME280;60508;42.622;25.416;2023-02-12T11:53:29;97779.66;;;19.82;18.36
45078;BME280;60508;42.622;25.416;2023-02-12T11:55:59;97790.72;;;17.27;20.25
45078;BME280;60508;42.622;25.416;2023-02-12T11:58:27;97789.84;;;16.56;21.62
45078;BME280;60508;42.622;25.416;2023-02-12T12:01:04;97783.50;;;18.06;19.79
45078;BME280;60508;42.622;25.416;2023-02-12T12:03:40;97792.78;;;20.30;17.88
45078;BME280;60508;42.622;25.416;2023-02-12T12:06:31;97780.03;;;22.06;16.28
45078;BME280;60508;42.622;25.416;2023-02-12T12:09:21;97786.28;;;23.34;15.26
45078;BME280;60508;42.622;25.416;2023-02-12T12:12:16;97782.25;;;23.60;14.63
45078;BME280;60508;42.622;25.416;2023-02-12T12:17:58;97793.22;;;25.11;13.14
45078;BME280;60508;42.622;25.416;2023-02-12T12:20:53;97803.09;;;25.66;13.10
45078;BME280;60508;42.622;25.416;2023-02-12T12:26:34;97814.53;;;28.72;10.76
45078;BME280;60508;42.622;25.416;2023-02-12T12:29:06;97813.84;;;29.63;10.40
45078;BME280;60508;42.622;25.416;2023-02-12T12:31:45;97819.34;;;31.31;9.86
45078;BME280;60508;42.622;25.416;2023-02-12T12:34:14;97821.38;;;29.29;10.57
45078;BME280;60508;42.622;25.416;2023-02-12T12:37:24;97820.22;;;27.39;11.75
45078;BME280;60508;42.622;25.416;2023-02-12T12:51:13;97843.75;;;18.56;18.50
45078;BME280;60508;42.622;25.416;2023-02-12T12:56:51;97844.88;;;17.44;19.54
45078;BME280;60508;42.622;25.416;2023-02-12T13:05:28;97853.06;;;16.08;20.96
45078;BME280;60508;42.622;25.416;2023-02-12T13:10:49;97848.78;;;15.00;22.25
45078;BME280;60508;42.622;25.416;2023-02-12T13:13:38;97853.97;;;14.27;23.36
45078;BME280;60508;42.622;25.416;2023-02-12T13:16:22;97843.84;;;12.87;25.29
45078;BME280;60508;42.622;25.416;2023-02-12T13:21:39;97848.59;;;11.38;27.31
45078;BME280;60508;42.622;25.416;2023-02-12T13:24:33;97868.41;;;10.36;28.66
45078;BME280;60508;42.622;25.416;2023-02-12T13:27:09;97869.47;;;9.77;29.46
45078;BME280;60508;42.622;25.416;2023-02-12T13:29:42;97873.53;;;9.14;30.81
45078;BME280;60508;42.622;25.416;2023-02-12T13:32:29;97871.03;;;8.66;31.92
45078;BME280;60508;42.622;25.416;2023-02-12T13:34:58;97884.31;;;8.32;32.46
45078;BME280;60508;42.622;25.416;2023-02-12T13:37:40;97887.81;;;8.39;32.78
45078;BME280;60508;42.622;25.416;2023-02-12T13:40:18;97896.19;;;8.16;33.25
45078;BME280;60508;42.622;25.416;2023-02-12T13:54:23;97910.38;;;8.10;34.17
45078;BME280;60508;42.622;25.416;2023-02-12T13:56:55;97922.22;;;7.88;34.76
45078;BME280;60508;42.622;25.416;2023-02-12T14:02:05;97926.69;;;7.74;35.23
45078;BME280;60508;42.622;25.416;2023-02-12T14:04:41;97919.22;;;7.62;34.95
45078;BME280;60508;42.622;25.416;2023-02-12T14:07:13;97933.22;;;7.64;35.51
45078;BME280;60508;42.622;25.416;2023-02-12T14:14:52;97942.75;;;6.95;36.36
45078;BME280;60508;42.622;25.416;2023-02-12T14:23:28;97962.31;;;6.81;37.58
45078;BME280;60508;42.622;25.416;2023-02-12T14:26:03;97970.88;;;6.55;38.32
45078;BME280;60508;42.622;25.416;2023-02-12T14:28:59;97965.00;;;6.60;38.82
45078;BME280;60508;42.622;25.416;2023-02-12T14:34:36;97980.56;;;6.56;38.69
45078;BME280;60508;42.622;25.416;2023-02-12T14:37:13;97987.22;;;6.45;38.84
45078;BME280;60508;42.622;25.416;2023-02-12T14:39:39;97992.00;;;6.50;38.63
45078;BME280;60508;42.622;25.416;2023-02-12T14:49:58;98012.28;;;6.14;38.95
45078;BME280;60508;42.622;25.416;2023-02-12T14:52:30;98016.50;;;6.09;39.29
45078;BME280;60508;42.622;25.416;2023-02-12T14:55:01;98019.19;;;6.09;40.64
45078;BME280;60508;42.622;25.416;2023-02-12T14:57:35;98019.56;;;6.20;39.80
45078;BME280;60508;42.622;25.416;2023-02-12T15:00:37;98026.06;;;6.18;40.44
45078;BME280;60508;42.622;25.416;2023-02-12T15:05:50;98035.56;;;6.06;41.06
45078;BME280;60508;42.622;25.416;2023-02-12T15:10:55;98047.06;;;6.06;40.51
45078;BME280;60508;42.622;25.416;2023-02-12T15:13:25;98052.13;;;6.01;41.13
45078;BME280;60508;42.622;25.416;2023-02-12T15:21:15;98073.34;;;5.94;41.29
45078;BME280;60508;42.622;25.416;2023-02-12T15:23:57;98062.97;;;5.99;41.73
45078;BME280;60508;42.622;25.416;2023-02-12T15:26:26;98079.22;;;5.90;41.79
45078;BME280;60508;42.622;25.416;2023-02-12T15:28:53;98078.31;;;5.97;41.45
45078;BME280;60508;42.622;25.416;2023-02-12T15:31:21;98090.50;;;6.15;41.17
45078;BME280;60508;42.622;25.416;2023-02-12T15:33:51;98091.97;;;6.17;41.03
45078;BME280;60508;42.622;25.416;2023-02-12T15:36:20;98088.22;;;6.27;40.88
45078;BME280;60508;42.622;25.416;2023-02-12T15:38:53;98096.50;;;6.32;41.54